createdAt,value
2022-09-14T00:01:44.280Z,1.20
2022-09-14T00:04:16.043Z,1.77
2022-09-14T00:06:44.876Z,1.87
2022-09-14T00:09:18.197Z,1.70
2022-09-14T00:11:46.713Z,1.70
2022-09-14T00:14:15.150Z,1.60
2022-09-14T00:16:44.690Z,1.40
2022-09-14T00:19:19.150Z,1.70
2022-09-14T00:21:51.113Z,1.70
2022-09-14T00:24:20.819Z,1.97
2022-09-14T00:26:49.106Z,1.87
2022-09-14T00:29:17.546Z,2.77
2022-09-14T00:31:46.424Z,1.60
2022-09-14T00:34:17.119Z,1.83
2022-09-14T00:36:47.744Z,1.70
2022-09-14T00:39:17.246Z,2.33
2022-09-14T00:41:49.729Z,2.37
2022-09-14T00:44:55.429Z,2.13
2022-09-14T00:47:24.668Z,1.77
2022-09-14T00:49:53.129Z,2.20
2022-09-14T00:52:26.006Z,1.60
2022-09-14T00:54:56.913Z,2.27
2022-09-14T00:57:28.741Z,2.20
2022-09-14T00:59:58.141Z,1.80
2022-09-14T01:02:28.332Z,2.00
2022-09-14T01:04:57.261Z,2.00
2022-09-14T01:07:47.036Z,2.10
2022-09-14T01:10:26.564Z,2.00
2022-09-14T01:13:06.716Z,1.67
2022-09-14T01:15:43.629Z,2.00
2022-09-14T01:18:25.729Z,2.23
2022-09-14T01:20:59.651Z,2.13
2022-09-14T01:23:34.557Z,2.07
2022-09-14T01:26:28.188Z,1.57
2022-09-14T01:29:00.604Z,1.87
2022-09-14T01:31:31.493Z,1.83
2022-09-14T01:34:08.890Z,1.90
2022-09-14T01:36:40.442Z,1.90
2022-09-14T01:39:10.639Z,2.00
2022-09-14T01:41:41.893Z,1.70
2022-09-14T01:44:16.411Z,2.20
2022-09-14T01:46:48.314Z,1.77
2022-09-14T01:49:21.528Z,2.10
2022-09-14T01:51:53.489Z,1.80
2022-09-14T01:54:27.166Z,2.20
2022-09-14T01:57:07.757Z,1.90
2022-09-14T01:59:40.749Z,1.70
2022-09-14T02:02:13.689Z,1.50
2022-09-14T02:04:48.444Z,2.20
2022-09-14T02:07:18.102Z,1.70
2022-09-14T02:09:48.402Z,1.70
2022-09-14T02:12:17.239Z,2.20
2022-09-14T02:14:48.380Z,1.77
2022-09-14T02:17:16.535Z,1.80
2022-09-14T02:19:48.845Z,2.00
2022-09-14T02:22:17.376Z,2.00
2022-09-14T02:24:45.808Z,1.70
2022-09-14T02:27:14.054Z,2.77
2022-09-14T02:29:42.990Z,1.73
2022-09-14T02:32:25.855Z,1.70
2022-09-14T02:35:02.921Z,1.50
2022-09-14T02:37:40.289Z,1.50
2022-09-14T02:40:17.261Z,1.63
2022-09-14T02:43:06.554Z,1.43
2022-09-14T02:45:45.414Z,1.20
2022-09-14T02:48:21.475Z,1.20
2022-09-14T02:50:57.564Z,1.33
2022-09-14T02:53:29.889Z,1.20
2022-09-14T02:56:02.260Z,0.90
2022-09-14T02:58:36.521Z,1.37
2022-09-14T03:01:06.291Z,0.90
2022-09-14T03:03:36.048Z,1.30
2022-09-14T03:06:05.614Z,0.90
2022-09-14T03:08:34.607Z,0.87
2022-09-14T03:11:02.710Z,0.90
2022-09-14T03:13:34.536Z,0.73
2022-09-14T03:16:06.884Z,1.00
2022-09-14T03:18:37.416Z,1.10
2022-09-14T03:21:07.865Z,0.80
2022-09-14T03:23:40.613Z,0.90
2022-09-14T03:26:09.655Z,1.20
2022-09-14T03:28:38.296Z,0.90
2022-09-14T03:31:08.902Z,1.10
2022-09-14T03:33:38.974Z,1.10
2022-09-14T03:36:12.540Z,1.00
2022-09-14T03:38:43.801Z,1.07
2022-09-14T03:41:12.763Z,1.20
2022-09-14T03:43:41.163Z,0.90
2022-09-14T03:46:11.340Z,1.40
2022-09-14T03:48:41.521Z,1.27
2022-09-14T03:51:11.107Z,1.27
2022-09-14T03:53:40.764Z,1.20
2022-09-14T03:56:10.651Z,1.20
2022-09-14T03:58:39.281Z,1.70
2022-09-14T04:01:09.788Z,1.20
2022-09-14T04:03:38.571Z,0.97
2022-09-14T04:06:10.085Z,1.50
2022-09-14T04:08:40.459Z,1.17
2022-09-14T04:11:10.746Z,1.10
2022-09-14T04:13:39.665Z,1.30
2022-09-14T04:16:08.273Z,1.20
2022-09-14T04:18:36.829Z,1.20
2022-09-14T04:21:08.853Z,1.27
2022-09-14T04:23:56.564Z,1.30
2022-09-14T04:26:27.762Z,1.27
2022-09-14T04:28:56.929Z,1.00
2022-09-14T04:31:26.000Z,1.37
2022-09-14T04:33:57.310Z,1.40
2022-09-14T04:36:31.204Z,1.17
2022-09-14T04:39:02.176Z,1.37
2022-09-14T04:41:31.620Z,1.30
2022-09-14T04:44:00.785Z,1.70
2022-09-14T04:46:30.844Z,0.87
2022-09-14T04:48:59.524Z,1.47
2022-09-14T04:51:31.958Z,1.00
2022-09-14T04:54:01.406Z,1.30
2022-09-14T04:56:32.105Z,1.40
2022-09-14T04:59:04.281Z,1.63
2022-09-14T05:01:34.640Z,1.37
2022-09-14T05:04:03.614Z,1.60
2022-09-14T05:06:35.150Z,1.50
2022-09-14T05:09:05.693Z,1.27
2022-09-14T05:11:36.198Z,1.57
2022-09-14T05:14:04.745Z,1.40
2022-09-14T05:16:35.061Z,1.43
2022-09-14T05:19:05.142Z,1.30
2022-09-14T05:21:37.877Z,1.30
2022-09-14T05:24:09.228Z,1.33
2022-09-14T05:26:37.722Z,1.40
2022-09-14T05:29:06.086Z,1.70
2022-09-14T05:31:41.071Z,1.63
2022-09-14T05:34:10.637Z,1.53
2022-09-14T05:36:40.824Z,1.30
2022-09-14T05:39:09.609Z,1.20
2022-09-14T05:41:38.586Z,1.33
2022-09-14T05:44:07.062Z,0.90
2022-09-14T05:46:35.809Z,1.10
2022-09-14T05:49:04.268Z,1.20
2022-09-14T05:51:32.437Z,0.97
2022-09-14T05:54:02.311Z,1.03
2022-09-14T05:56:32.728Z,1.20
2022-09-14T05:59:00.854Z,1.10
2022-09-14T06:01:31.311Z,1.10
2022-09-14T06:04:03.139Z,1.20
2022-09-14T06:06:33.045Z,1.00
2022-09-14T06:09:03.497Z,1.03
2022-09-14T06:11:33.797Z,1.00
2022-09-14T06:14:02.873Z,0.90
2022-09-14T06:16:31.489Z,1.13
2022-09-14T06:19:00.916Z,0.77
2022-09-14T06:21:31.535Z,0.80
2022-09-14T06:24:00.172Z,0.63
2022-09-14T06:26:30.018Z,0.67
2022-09-14T06:28:58.393Z,0.83
2022-09-14T06:31:26.743Z,0.80
2022-09-14T06:33:55.152Z,0.73
2022-09-14T06:36:26.662Z,0.90
2022-09-14T06:38:55.565Z,0.70
2022-09-14T06:41:29.147Z,0.97
2022-09-14T06:44:01.619Z,0.60
2022-09-14T06:46:31.942Z,0.70
2022-09-14T06:49:02.031Z,0.63
2022-09-14T06:51:32.282Z,0.50
2022-09-14T06:54:01.965Z,0.50
2022-09-14T06:56:32.443Z,0.60
2022-09-14T06:59:02.109Z,0.93
2022-09-14T07:01:30.997Z,0.70
2022-09-14T07:04:00.985Z,0.80
2022-09-14T07:06:31.640Z,0.60
2022-09-14T07:09:00.593Z,0.70
2022-09-14T07:11:29.643Z,0.67
2022-09-14T07:13:59.359Z,0.70
2022-09-14T07:16:30.229Z,0.70
2022-09-14T07:18:59.927Z,0.70
2022-09-14T07:21:28.554Z,0.80
2022-09-14T07:23:56.933Z,0.70
2022-09-14T07:26:26.786Z,0.73
2022-09-14T07:28:57.234Z,0.83
2022-09-14T07:31:29.156Z,0.77
2022-09-14T07:33:59.654Z,0.70
2022-09-14T07:36:32.752Z,0.80
2022-09-14T07:39:04.522Z,0.80
2022-09-14T07:41:34.203Z,1.23
2022-09-14T07:44:04.482Z,1.40
2022-09-14T07:46:39.614Z,2.03
2022-09-14T07:49:09.495Z,3.30
2022-09-14T07:51:39.068Z,3.17
2022-09-14T07:54:08.754Z,2.50
2022-09-14T07:56:37.169Z,0.70
2022-09-14T08:01:55.756Z,0.60
2022-09-14T08:04:24.478Z,0.47
2022-09-14T08:06:52.604Z,0.30
2022-09-14T08:09:21.139Z,0.40
2022-09-14T08:11:49.278Z,0.47
2022-09-14T08:14:17.384Z,0.40
2022-09-14T08:16:45.916Z,0.60
2022-09-14T08:19:17.219Z,0.60
2022-09-14T08:21:47.518Z,0.50
2022-09-14T08:24:18.075Z,0.23
2022-09-14T08:26:47.171Z,0.30
2022-09-14T08:29:16.349Z,0.60
2022-09-14T08:31:45.917Z,0.40
2022-09-14T08:34:17.557Z,0.30
2022-09-14T08:36:47.220Z,0.43
2022-09-14T08:39:17.242Z,0.40
2022-09-14T08:41:52.790Z,0.40
2022-09-14T08:44:27.021Z,0.50
2022-09-14T08:47:00.567Z,0.30
2022-09-14T08:49:42.629Z,0.50
2022-09-14T08:52:20.994Z,0.50
2022-09-14T08:54:57.740Z,0.50
2022-09-14T08:57:43.121Z,0.30
2022-09-14T09:00:15.131Z,0.30
2022-09-14T09:03:29.129Z,0.30
2022-09-14T09:06:15.126Z,0.40
2022-09-14T09:08:53.780Z,0.43
2022-09-14T09:11:26.277Z,0.50
2022-09-14T09:13:56.854Z,0.40
2022-09-14T09:16:26.879Z,0.40
2022-09-14T09:18:59.886Z,0.53
2022-09-14T09:21:33.620Z,0.50
2022-09-14T09:24:24.053Z,0.50
2022-09-14T09:26:52.642Z,0.60
2022-09-14T09:29:20.860Z,0.50
2022-09-14T09:31:53.250Z,0.50
2022-09-14T09:34:28.051Z,0.70
2022-09-14T09:36:59.209Z,0.57
2022-09-14T09:39:30.337Z,0.50
2022-09-14T09:42:02.476Z,0.70
2022-09-14T09:44:31.001Z,0.60
2022-09-14T09:47:00.823Z,0.60
2022-09-14T09:49:33.266Z,0.73
2022-09-14T09:52:11.385Z,0.70
2022-09-14T09:54:42.373Z,0.70
2022-09-14T09:57:23.667Z,0.63
2022-09-14T09:59:52.102Z,0.50
2022-09-14T10:02:28.125Z,0.43
2022-09-14T10:05:02.342Z,0.70
2022-09-14T10:07:34.454Z,0.50
2022-09-14T10:10:05.772Z,0.70
2022-09-14T10:12:34.679Z,0.40
2022-09-14T10:15:17.391Z,0.80
2022-09-14T10:18:09.263Z,0.30
2022-09-14T10:20:39.826Z,0.60
2022-09-14T10:23:25.580Z,0.50
2022-09-14T10:26:00.855Z,0.40
2022-09-14T10:28:30.506Z,0.40
2022-09-14T10:31:03.998Z,0.57
2022-09-14T10:33:33.112Z,0.50
2022-09-14T10:36:11.349Z,0.50
2022-09-14T10:38:45.953Z,0.30
2022-09-14T10:41:26.159Z,0.60
2022-09-14T10:44:24.511Z,0.70
2022-09-14T10:47:06.670Z,0.60
2022-09-14T10:49:44.981Z,0.53
2022-09-14T10:52:21.750Z,0.60
2022-09-14T10:55:07.990Z,0.60
2022-09-14T10:57:46.855Z,0.70
2022-09-14T11:00:19.101Z,0.50
2022-09-14T11:03:11.610Z,0.50
2022-09-14T11:05:44.795Z,0.90
2022-09-14T11:08:19.262Z,0.60
2022-09-14T11:11:16.745Z,0.70
2022-09-14T11:14:00.397Z,0.60
2022-09-14T11:16:48.342Z,0.60
2022-09-14T11:19:26.114Z,0.60
2022-09-14T11:22:02.213Z,0.60
2022-09-14T11:24:39.924Z,0.53
2022-09-14T11:27:16.208Z,0.57
2022-09-14T11:29:50.609Z,0.60
2022-09-14T11:32:22.735Z,0.57
2022-09-14T11:34:56.741Z,0.57
2022-09-14T11:37:32.794Z,0.70
2022-09-14T11:40:10.665Z,0.43
2022-09-14T11:42:50.280Z,0.50
2022-09-14T11:45:24.704Z,0.60
2022-09-14T11:48:01.294Z,0.70
2022-09-14T11:50:32.258Z,0.40
2022-09-14T11:53:05.843Z,0.43
2022-09-14T11:55:34.630Z,0.50
2022-09-14T11:58:08.363Z,0.50
2022-09-14T12:01:03.226Z,0.60
2022-09-14T12:03:55.641Z,0.40
2022-09-14T12:06:54.268Z,0.50
2022-09-14T12:09:42.887Z,0.40
2022-09-14T12:12:36.923Z,0.50
2022-09-14T12:15:19.856Z,0.50
2022-09-14T12:17:49.661Z,0.50
2022-09-14T12:20:43.337Z,0.57
2022-09-14T12:23:26.635Z,0.30
2022-09-14T12:26:09.968Z,0.43
2022-09-14T12:28:48.566Z,0.50
2022-09-14T12:31:36.327Z,0.50
2022-09-14T12:34:23.628Z,0.40
2022-09-14T12:37:20.928Z,0.57
2022-09-14T12:40:23.719Z,0.50
2022-09-14T12:42:52.010Z,0.47
2022-09-14T12:45:49.151Z,0.40
2022-09-14T12:49:05.653Z,0.67
2022-09-14T12:51:44.643Z,0.40
2022-09-14T12:54:26.373Z,0.40
2022-09-14T12:57:10.162Z,0.40
2022-09-14T12:59:49.709Z,0.50
2022-09-14T13:02:59.560Z,0.60
2022-09-14T13:05:30.942Z,0.60
2022-09-14T13:08:01.138Z,0.40
2022-09-14T13:10:33.266Z,0.47
2022-09-14T13:13:03.957Z,0.50
2022-09-14T13:15:37.081Z,0.47
2022-09-14T13:18:08.138Z,0.50
2022-09-14T13:20:37.573Z,0.40
2022-09-14T13:23:20.717Z,0.40
2022-09-14T13:25:49.197Z,1.07
2022-09-14T13:28:19.716Z,0.90
2022-09-14T13:30:56.681Z,0.87
2022-09-14T13:33:25.150Z,1.00
2022-09-14T13:35:56.343Z,0.60
2022-09-14T13:38:30.934Z,0.60
2022-09-14T13:41:09.142Z,0.60
2022-09-14T13:43:37.650Z,0.50
2022-09-14T13:46:08.714Z,0.60
2022-09-14T13:48:41.276Z,0.40
2022-09-14T13:51:10.634Z,0.50
2022-09-14T13:53:48.572Z,0.50
2022-09-14T13:56:22.378Z,0.40
2022-09-14T13:58:52.492Z,0.40
2022-09-14T14:01:29.349Z,0.40
2022-09-14T14:03:58.517Z,0.37
2022-09-14T14:06:28.405Z,0.47
2022-09-14T14:09:01.437Z,0.50
2022-09-14T14:11:35.698Z,0.60
2022-09-14T14:14:23.049Z,0.50
2022-09-14T14:17:41.036Z,0.50
2022-09-14T14:20:33.071Z,0.50
2022-09-14T14:23:04.730Z,0.30
2022-09-14T14:25:42.150Z,0.30
2022-09-14T14:28:19.189Z,0.50
2022-09-14T14:30:47.674Z,0.37
2022-09-14T14:33:18.683Z,0.50
2022-09-14T14:35:47.602Z,0.50
2022-09-14T14:38:16.368Z,0.40
2022-09-14T14:40:47.128Z,0.70
2022-09-14T14:43:27.780Z,0.60
2022-09-14T14:45:58.494Z,0.50
2022-09-14T14:48:27.129Z,0.40
2022-09-14T14:50:56.425Z,0.47
2022-09-14T14:53:24.748Z,0.63
2022-09-14T14:55:54.424Z,0.50
2022-09-14T14:58:24.236Z,0.40
2022-09-14T15:00:53.027Z,0.50
2022-09-14T15:03:21.251Z,0.50
2022-09-14T15:05:50.543Z,0.60
2022-09-14T15:08:20.038Z,0.33
2022-09-14T15:10:49.069Z,0.40
2022-09-14T15:13:18.766Z,0.40
2022-09-14T15:15:46.977Z,0.50
2022-09-14T15:18:15.076Z,0.40
2022-09-14T15:20:43.663Z,0.30
2022-09-14T15:23:14.244Z,0.30
2022-09-14T15:25:42.385Z,0.47
2022-09-14T15:28:10.885Z,0.30
2022-09-14T15:30:41.745Z,0.50
2022-09-14T15:33:09.851Z,0.23
2022-09-14T15:35:39.200Z,0.30
2022-09-14T15:38:08.239Z,0.40
2022-09-14T15:40:36.411Z,0.30
2022-09-14T15:43:04.714Z,0.20
2022-09-14T15:45:34.235Z,0.30
2022-09-14T15:48:04.203Z,0.30
2022-09-14T15:50:32.426Z,0.30
2022-09-14T15:53:02.846Z,0.93
2022-09-14T15:55:31.174Z,0.30
2022-09-14T15:57:59.752Z,0.27
2022-09-14T16:00:28.306Z,0.20
2022-09-14T16:02:56.458Z,0.43
2022-09-14T16:05:26.382Z,0.40
2022-09-14T16:07:55.087Z,0.23
2022-09-14T16:10:25.555Z,0.20
2022-09-14T16:12:55.501Z,0.30
2022-09-14T16:15:24.093Z,0.40
2022-09-14T16:17:53.297Z,0.27
2022-09-14T16:20:22.333Z,0.30
2022-09-14T16:22:52.587Z,0.30
2022-09-14T16:25:21.025Z,0.20
2022-09-14T16:27:50.369Z,0.20
2022-09-14T16:30:18.589Z,0.30
2022-09-14T16:32:47.378Z,0.30
2022-09-14T16:35:15.883Z,0.30
2022-09-14T16:37:44.153Z,0.30
2022-09-14T16:40:14.102Z,0.37
2022-09-14T16:42:42.721Z,0.30
2022-09-14T16:45:11.446Z,0.57
2022-09-14T16:47:40.513Z,0.40
2022-09-14T16:50:09.147Z,0.50
2022-09-14T16:52:37.373Z,0.47
2022-09-14T16:55:06.376Z,0.30
2022-09-14T16:57:36.457Z,0.37
2022-09-14T17:00:05.620Z,2.10
2022-09-14T17:02:33.967Z,0.30
2022-09-14T17:05:02.807Z,0.37
2022-09-14T17:07:31.008Z,0.20
2022-09-14T17:09:59.171Z,0.33
2022-09-14T17:12:27.677Z,0.30
2022-09-14T17:14:57.197Z,0.27
2022-09-14T17:17:25.726Z,0.30
2022-09-14T17:19:54.047Z,0.33
2022-09-14T17:22:22.182Z,0.30
2022-09-14T17:24:50.458Z,0.47
2022-09-14T17:27:20.154Z,0.47
2022-09-14T17:29:48.596Z,0.27
2022-09-14T17:32:18.302Z,0.30
2022-09-14T17:34:47.077Z,0.53
2022-09-14T17:37:15.555Z,0.40
2022-09-14T17:39:44.078Z,0.33
2022-09-14T17:42:12.821Z,0.40
2022-09-14T17:44:41.316Z,0.50
2022-09-14T17:47:09.505Z,0.50
2022-09-14T17:49:39.406Z,0.43
2022-09-14T17:52:07.607Z,0.50
2022-09-14T17:54:35.705Z,0.40
2022-09-14T17:57:04.425Z,0.40
2022-09-14T17:59:32.853Z,0.40
2022-09-14T18:02:00.979Z,0.73
2022-09-14T18:04:29.322Z,0.60
2022-09-14T18:06:59.246Z,0.70
2022-09-14T18:09:27.354Z,0.40
2022-09-14T18:11:57.332Z,0.50
2022-09-14T18:14:26.269Z,0.50
2022-09-14T18:16:54.422Z,0.30
2022-09-14T18:19:22.780Z,0.50
2022-09-14T18:21:52.745Z,0.50
2022-09-14T18:24:22.826Z,0.40
2022-09-14T18:26:51.522Z,0.40
2022-09-14T18:29:23.209Z,0.50
2022-09-14T18:31:52.180Z,0.83
2022-09-14T18:34:21.204Z,0.50
2022-09-14T18:36:51.390Z,0.50
2022-09-14T18:39:20.061Z,0.60
2022-09-14T18:41:53.829Z,0.40
2022-09-14T18:44:23.273Z,0.30
2022-09-14T18:46:51.913Z,0.40
2022-09-14T18:49:21.188Z,0.60
2022-09-14T18:51:49.700Z,0.30
2022-09-14T18:54:18.579Z,0.40
2022-09-14T18:56:46.958Z,0.50
2022-09-14T18:59:17.077Z,0.50
2022-09-14T19:01:45.844Z,0.33
2022-09-14T19:04:15.590Z,0.63
2022-09-14T19:06:44.593Z,0.50
2022-09-14T19:09:13.366Z,0.30
2022-09-14T19:11:42.141Z,0.40
2022-09-14T19:14:14.277Z,0.50
2022-09-14T19:16:44.225Z,0.40
2022-09-14T19:19:14.554Z,0.40
2022-09-14T19:21:43.369Z,0.30
2022-09-14T19:24:13.049Z,0.40
2022-09-14T19:26:45.541Z,0.30
2022-09-14T19:29:14.852Z,0.30
2022-09-14T19:31:45.544Z,0.50
2022-09-14T19:34:14.135Z,0.40
2022-09-14T19:36:42.307Z,0.50
2022-09-14T19:39:11.210Z,0.50
2022-09-14T19:41:39.940Z,0.40
2022-09-14T19:44:08.781Z,0.40
2022-09-14T19:46:39.975Z,0.40
2022-09-14T19:49:15.082Z,0.40
2022-09-14T19:51:43.941Z,0.50
2022-09-14T19:54:12.633Z,0.60
2022-09-14T19:56:41.481Z,0.40
2022-09-14T19:59:10.487Z,0.40
2022-09-14T20:01:40.627Z,0.30
2022-09-14T20:04:11.946Z,0.47
2022-09-14T20:06:42.789Z,0.60
2022-09-14T20:09:17.545Z,0.40
2022-09-14T20:11:47.578Z,0.50
2022-09-14T20:14:20.217Z,0.50
2022-09-14T20:16:50.514Z,0.37
2022-09-14T20:19:23.314Z,0.53
2022-09-14T20:21:53.085Z,0.50
2022-09-14T20:24:25.671Z,0.40
2022-09-14T20:26:55.469Z,0.50
2022-09-14T20:29:24.968Z,0.50
2022-09-14T20:31:54.154Z,0.50
2022-09-14T20:34:24.164Z,0.40
2022-09-14T20:36:53.782Z,0.50
2022-09-14T20:39:23.877Z,0.30
2022-09-14T20:41:52.071Z,0.53
2022-09-14T20:44:22.417Z,0.40
2022-09-14T20:46:51.924Z,0.50
2022-09-14T20:49:22.476Z,0.50
2022-09-14T20:51:54.320Z,0.50
2022-09-14T20:54:22.972Z,0.40
2022-09-14T20:56:51.503Z,0.40
2022-09-14T20:59:22.432Z,0.60
2022-09-14T21:01:52.697Z,0.30
2022-09-14T21:04:25.130Z,0.50
2022-09-14T21:06:57.490Z,0.50
2022-09-14T21:09:27.258Z,0.50
2022-09-14T21:11:55.606Z,0.40
2022-09-14T21:14:23.888Z,0.40
2022-09-14T21:16:56.792Z,0.40
2022-09-14T21:19:27.084Z,0.37
2022-09-14T21:21:56.817Z,0.40
2022-09-14T21:24:25.564Z,0.50
2022-09-14T21:26:53.733Z,0.87
2022-09-14T21:29:24.727Z,0.40
2022-09-14T21:31:53.628Z,0.53
2022-09-14T21:34:22.265Z,0.43
2022-09-14T21:36:52.050Z,0.50
2022-09-14T21:39:23.441Z,0.40
2022-09-14T21:41:58.105Z,0.40
2022-09-14T21:44:30.116Z,0.40
2022-09-14T21:46:58.439Z,0.40
2022-09-14T21:49:26.595Z,0.50
2022-09-14T21:51:54.954Z,0.50
2022-09-14T21:54:24.750Z,0.53
2022-09-14T21:56:54.025Z,0.40
2022-09-14T21:59:23.962Z,0.40
2022-09-14T22:01:52.822Z,0.50
2022-09-14T22:04:24.414Z,0.53
2022-09-14T22:06:53.718Z,0.50
2022-09-14T22:09:26.188Z,0.53
2022-09-14T22:11:54.959Z,0.40
2022-09-14T22:14:25.488Z,0.50
2022-09-14T22:16:54.382Z,0.43
2022-09-14T22:19:25.155Z,0.60
2022-09-14T22:21:53.769Z,0.60
2022-09-14T22:24:31.264Z,0.50
2022-09-14T22:27:02.176Z,0.40
2022-09-14T22:29:30.906Z,0.40
2022-09-14T22:32:00.157Z,0.60
2022-09-14T22:34:28.892Z,0.60
2022-09-14T22:36:57.441Z,0.47
2022-09-14T22:39:26.942Z,0.60
2022-09-14T22:41:55.520Z,0.40
2022-09-14T22:44:23.977Z,0.50
2022-09-14T22:46:52.150Z,0.40
2022-09-14T22:49:20.222Z,0.50
2022-09-14T22:51:48.533Z,0.40
2022-09-14T22:54:16.657Z,0.40
2022-09-14T22:56:46.122Z,0.50
2022-09-14T22:59:14.689Z,1.33
2022-09-14T23:01:43.347Z,0.50
2022-09-14T23:04:13.595Z,0.50
2022-09-14T23:06:43.918Z,0.50
2022-09-14T23:09:15.551Z,0.50
2022-09-14T23:11:45.872Z,0.43
2022-09-14T23:14:14.642Z,0.60
2022-09-14T23:16:45.195Z,0.60
2022-09-14T23:19:17.086Z,0.60
2022-09-14T23:21:45.874Z,0.50
2022-09-14T23:24:14.613Z,0.60
2022-09-14T23:26:43.370Z,0.50
2022-09-14T23:29:16.836Z,0.50
2022-09-14T23:31:45.547Z,0.53
2022-09-14T23:34:14.008Z,0.40
2022-09-14T23:36:42.156Z,0.30
2022-09-14T23:39:10.457Z,0.40
2022-09-14T23:41:39.941Z,0.50
2022-09-14T23:44:08.304Z,0.50
2022-09-14T23:46:37.864Z,0.60
2022-09-14T23:49:06.753Z,0.50
2022-09-14T23:51:34.885Z,0.30
2022-09-14T23:54:02.975Z,3.00
2022-09-14T23:56:31.454Z,0.40
2022-09-14T23:58:59.624Z,0.30
